Time;durP1;ratioP1;P1;durP2;ratioP2;P2;SDS_P1;SDS_P2;PMS_P1;PMS_P2;Temp;Humidity;BMP_temperature;BMP_pressure;BME280_temperature;BME280_humidity;BME280_pressure;Samples;Min_cycle;Max_cycle;Signal;HPM_P1;HPM_P2
2021/07/12 00:01:58;;;;;;;5.20;4.35;;;19.10;81.80;;;;;;5077795;28;20481;-77
2021/07/12 00:04:23;;;;;;;10.52;4.72;;;19.10;81.80;;;;;;5091816;28;20035;-77
2021/07/12 00:06:49;;;;;;;6.38;4.35;;;19.10;81.80;;;;;;5080620;28;20058;-77
2021/07/12 00:09:15;;;;;;;8.88;4.43;;;19.10;81.90;;;;;;5071648;28;20143;-77
2021/07/12 00:11:41;;;;;;;4.72;4.30;;;19.10;81.80;;;;;;5076214;28;20134;-77
2021/07/12 00:14:06;;;;;;;5.70;4.60;;;19.10;81.80;;;;;;5086436;28;20056;-77
2021/07/12 00:16:32;;;;;;;7.68;4.97;;;19.00;81.80;;;;;;5073254;28;20071;-77
2021/07/12 00:18:57;;;;;;;6.00;4.90;;;19.00;81.90;;;;;;5072669;28;20468;-77
2021/07/12 00:21:23;;;;;;;8.15;4.57;;;19.00;82.00;;;;;;5073428;28;20120;-77
2021/07/12 00:23:51;;;;;;;5.30;4.80;;;18.90;82.10;;;;;;5059747;28;20481;-77
2021/07/12 00:26:18;;;;;;;7.18;4.35;;;18.90;82.10;;;;;;5073012;28;20036;-77
2021/07/12 00:28:44;;;;;;;6.72;4.63;;;18.90;82.20;;;;;;5074889;28;20063;-77
2021/07/12 00:31:10;;;;;;;5.55;5.05;;;18.80;82.40;;;;;;5091131;28;20111;-77
2021/07/12 00:33:35;;;;;;;7.03;5.10;;;18.80;82.50;;;;;;5087042;28;20032;-77
2021/07/12 00:36:01;;;;;;;8.27;5.03;;;18.80;82.60;;;;;;5092153;28;20473;-77
2021/07/12 00:38:27;;;;;;;7.43;5.38;;;18.80;82.60;;;;;;5092788;28;20032;-77
2021/07/12 00:40:53;;;;;;;9.57;5.05;;;18.70;82.60;;;;;;5085950;28;20477;-77
2021/07/12 00:43:19;;;;;;;7.88;5.22;;;18.80;82.60;;;;;;5092678;28;20081;-77
2021/07/12 00:45:46;;;;;;;5.70;5.03;;;18.80;82.50;;;;;;5081815;28;20051;-77
2021/07/12 00:48:11;;;;;;;9.63;5.47;;;18.70;82.30;;;;;;5075431;28;20039;-77
2021/07/12 00:50:40;;;;;;;5.93;5.43;;;18.80;82.30;;;;;;5089847;28;20032;-77
2021/07/12 00:53:07;;;;;;;6.05;5.43;;;18.70;82.20;;;;;;5081413;28;20032;-77
2021/07/12 00:55:38;;;;;;;8.25;5.57;;;18.70;82.20;;;;;;5074780;28;20032;-77
2021/07/12 00:58:10;;;;;;;8.15;6.05;;;18.70;82.30;;;;;;5087884;28;20016;-77
2021/07/12 01:00:37;;;;;;;6.18;5.68;;;18.70;82.30;;;;;;5096342;28;20024;-77
2021/07/12 01:03:03;;;;;;;8.32;6.30;;;18.70;82.30;;;;;;5084128;28;20036;-77
2021/07/12 01:05:31;;;;;;;6.60;5.53;;;18.70;82.30;;;;;;5076250;28;20362;-77
2021/07/12 01:07:59;;;;;;;7.13;5.77;;;18.60;82.40;;;;;;5085449;28;20028;-77
2021/07/12 01:10:26;;;;;;;7.97;5.90;;;18.60;82.50;;;;;;5074983;28;20679;-77
2021/07/12 01:13:12;;;;;;;12.60;5.72;;;18.60;82.70;;;;;;5085842;28;20485;-77
2021/07/12 01:15:50;;;;;;;6.88;6.18;;;18.50;83.00;;;;;;5096233;28;20024;-77
2021/07/12 01:18:27;;;;;;;9.05;5.78;;;18.50;83.10;;;;;;5084153;28;20112;-77
2021/07/12 01:21:37;;;;;;;7.40;5.55;;;18.50;84.00;;;;;;5075933;28;20525;-77
2021/07/12 01:24:12;;;;;;;10.25;5.75;;;18.50;83.50;;;;;;5069841;28;20062;-77
2021/07/12 01:27:33;;;;;;;7.65;6.03;;;18.40;83.50;;;;;;5088753;28;20027;-77
2021/07/12 01:30:17;;;;;;;10.80;6.18;;;18.40;83.50;;;;;;5090025;28;20454;-77
2021/07/12 01:32:55;;;;;;;10.05;6.03;;;18.40;83.70;;;;;;5087580;28;20028;-77
2021/07/12 01:35:40;;;;;;;9.38;6.65;;;18.40;84.40;;;;;;5075698;28;20031;-77
2021/07/12 01:38:14;;;;;;;7.55;6.18;;;18.40;83.80;;;;;;5086902;28;20062;-77
2021/07/12 01:41:07;;;;;;;8.18;6.32;;;18.40;83.80;;;;;;5081384;28;20025;-77
2021/07/12 01:43:39;;;;;;;13.15;6.80;;;18.40;83.80;;;;;;5075618;28;20040;-77
2021/07/12 01:46:13;;;;;;;6.85;6.15;;;18.30;83.70;;;;;;5078321;28;20036;-77
2021/07/12 01:49:04;;;;;;;8.45;7.22;;;18.30;84.40;;;;;;5076010;28;20070;-77
2021/07/12 01:51:46;;;;;;;9.20;6.38;;;18.20;84.10;;;;;;5075071;28;20040;-77
2021/07/12 01:54:41;;;;;;;9.65;7.38;;;18.10;84.20;;;;;;5064091;28;20035;-77
2021/07/12 01:57:15;;;;;;;7.85;7.05;;;18.10;84.30;;;;;;5029481;28;20431;-77
2021/07/12 01:59:49;;;;;;;8.45;7.22;;;18.10;84.40;;;;;;5095414;28;20384;-77
2021/07/12 02:02:15;;;;;;;7.43;6.70;;;18.10;84.60;;;;;;5083830;28;20028;-77
2021/07/12 02:04:42;;;;;;;11.18;7.53;;;18.00;84.60;;;;;;5075112;28;20044;-77
2021/07/12 02:07:15;;;;;;;9.45;7.10;;;18.00;84.70;;;;;;5083733;28;20069;-77
2021/07/12 02:09:42;;;;;;;8.15;7.35;;;18.00;84.70;;;;;;5089459;28;20028;-77
2021/07/12 02:12:10;;;;;;;12.73;7.22;;;18.00;84.80;;;;;;5073783;28;20021;-77
2021/07/12 02:14:37;;;;;;;8.10;7.20;;;17.90;84.80;;;;;;5075265;28;20024;-77
2021/07/12 02:17:05;;;;;;;8.55;7.50;;;18.00;84.90;;;;;;5074765;28;20044;-77
2021/07/12 02:19:32;;;;;;;10.23;7.20;;;17.90;84.90;;;;;;5078524;28;20055;-77
2021/07/12 02:21:59;;;;;;;11.60;7.80;;;17.90;85.00;;;;;;5086649;28;20393;-77
2021/07/12 02:24:28;;;;;;;8.25;7.32;;;17.90;85.00;;;;;;5076648;28;20031;-77
2021/07/12 02:26:55;;;;;;;9.68;7.53;;;17.90;85.00;;;;;;5087485;28;20420;-77
2021/07/12 02:29:21;;;;;;;10.48;7.75;;;17.90;85.00;;;;;;5094826;28;20638;-77
2021/07/12 02:31:51;;;;;;;7.82;7.03;;;17.90;85.10;;;;;;5089390;28;20021;-77
2021/07/12 02:34:17;;;;;;;12.48;7.40;;;17.80;85.90;;;;;;5073418;28;20025;-77
2021/07/12 02:36:45;;;;;;;8.15;7.05;;;17.80;85.30;;;;;;5076468;28;20031;-77
2021/07/12 02:39:12;;;;;;;15.30;7.05;;;17.80;85.40;;;;;;5093005;28;20386;-77
2021/07/12 02:41:39;;;;;;;10.68;7.20;;;17.80;85.30;;;;;;5089427;28;20024;-77
2021/07/12 02:44:10;;;;;;;9.63;6.95;;;17.70;85.40;;;;;;5074106;28;20400;-76
2021/07/12 02:46:39;;;;;;;11.68;6.70;;;17.70;85.40;;;;;;5074437;28;20020;-77
2021/07/12 02:49:04;;;;;;;;;;;17.70;85.40;;;;;;5074612;28;20089;-77
2021/07/12 02:51:59;;;;;;;6.90;6.20;;;17.70;85.10;;;;;;5090201;28;19920;-77
2021/07/12 02:54:31;;;;;;;8.10;6.88;;;17.60;85.40;;;;;;5083748;28;20036;-77
2021/07/12 02:56:57;;;;;;;8.60;7.13;;;17.60;85.50;;;;;;5089472;28;20036;-77
2021/07/12 02:59:23;;;;;;;9.02;6.90;;;17.60;85.60;;;;;;5092591;28;20028;-77
2021/07/12 03:01:48;;;;;;;8.50;6.93;;;17.50;85.60;;;;;;5074961;28;20032;-77
2021/07/12 03:04:14;;;;;;;9.73;7.45;;;17.50;86.30;;;;;;5072797;28;20482;-77
2021/07/12 03:06:46;;;;;;;8.05;7.25;;;17.50;85.70;;;;;;5076003;28;20035;-77
2021/07/12 03:09:13;;;;;;;8.90;7.35;;;17.50;85.80;;;;;;5094109;28;20039;-77
2021/07/12 03:11:47;;;;;;;9.18;7.20;;;17.50;85.80;;;;;;5083938;28;20059;-77
2021/07/12 03:14:28;;;;;;;7.15;6.45;;;17.50;85.80;;;;;;5072363;28;20027;-77
2021/07/12 03:16:54;;;;;;;10.93;6.55;;;17.40;85.80;;;;;;5076003;28;20109;-77
2021/07/12 03:19:25;;;;;;;7.80;7.00;;;17.40;85.70;;;;;;5079621;28;20027;-77
2021/07/12 03:21:53;;;;;;;10.57;6.88;;;17.40;85.80;;;;;;5083709;28;20103;-77
2021/07/12 03:24:19;;;;;;;11.65;6.35;;;17.30;85.80;;;;;;5072346;28;20035;-77
2021/07/12 03:26:47;;;;;;;10.93;7.63;;;17.30;85.90;;;;;;5072367;28;20044;-76
2021/07/12 03:29:14;;;;;;;10.60;7.20;;;17.30;86.00;;;;;;5072186;28;20033;-77
2021/07/12 03:31:42;;;;;;;7.63;6.93;;;17.30;86.00;;;;;;5080174;28;20038;-77
2021/07/12 03:34:10;;;;;;;7.60;6.82;;;17.20;86.10;;;;;;5076371;28;20511;-76
2021/07/12 03:36:37;;;;;;;11.87;7.17;;;17.20;86.20;;;;;;5080424;28;20067;-77
2021/07/12 03:39:05;;;;;;;8.05;6.60;;;17.20;86.20;;;;;;5093560;28;20266;-77
2021/07/12 03:41:31;;;;;;;14.70;7.43;;;17.10;86.40;;;;;;5086335;28;20499;-77
2021/07/12 03:43:58;;;;;;;11.27;8.30;;;17.20;86.50;;;;;;5071867;28;20639;-77
2021/07/12 03:46:23;;;;;;;8.93;7.60;;;17.20;86.50;;;;;;5077265;28;20097;-77
2021/07/12 03:48:49;;;;;;;8.52;7.63;;;17.20;86.50;;;;;;5086435;28;20107;-77
2021/07/12 03:51:27;;;;;;;14.18;8.82;;;17.20;86.40;;;;;;5084031;28;20072;-76
2021/07/12 03:53:53;;;;;;;9.15;8.15;;;17.20;86.50;;;;;;5092117;28;20024;-77
2021/07/12 03:56:19;;;;;;;12.25;8.88;;;17.30;86.50;;;;;;5088520;28;20033;-77
2021/07/12 03:58:45;;;;;;;12.05;9.27;;;17.30;86.50;;;;;;5072996;28;20538;-77
2021/07/12 04:01:19;;;;;;;11.70;9.20;;;17.30;86.50;;;;;;5074762;28;20095;-77
2021/07/12 04:03:54;;;;;;;9.85;8.85;;;17.30;86.60;;;;;;5083497;28;20163;-77
2021/07/12 04:06:20;;;;;;;13.57;9.68;;;17.40;87.30;;;;;;5072853;28;20397;-77
2021/07/12 04:08:46;;;;;;;12.07;10.55;;;17.40;86.70;;;;;;5073001;28;20025;-77
2021/07/12 04:11:13;;;;;;;11.25;10.13;;;17.40;86.60;;;;;;5077643;28;20115;-77
2021/07/12 04:13:39;;;;;;;12.82;9.95;;;17.40;86.70;;;;;;5093170;28;20071;-77
2021/07/12 04:16:05;;;;;;;11.35;10.20;;;17.50;86.80;;;;;;5088780;28;20432;-77
2021/07/12 04:18:31;;;;;;;10.35;9.27;;;17.50;87.40;;;;;;5094523;28;20028;-77
2021/07/12 04:20:58;;;;;;;10.45;9.35;;;17.50;86.70;;;;;;5084689;28;20044;-77
2021/07/12 04:23:23;;;;;;;12.00;10.38;;;17.60;86.80;;;;;;5078700;28;20093;-77
2021/07/12 04:25:49;;;;;;;11.48;10.27;;;17.60;86.90;;;;;;5081553;28;20489;-77
2021/07/12 04:28:14;;;;;;;11.23;9.85;;;17.60;86.70;;;;;;5099826;28;20036;-77
2021/07/12 04:30:40;;;;;;;11.80;9.43;;;17.60;86.60;;;;;;5097481;28;20077;-77
2021/07/12 04:33:06;;;;;;;13.73;10.40;;;17.70;86.60;;;;;;5099135;28;20040;-77
2021/07/12 04:35:32;;;;;;;12.73;10.00;;;17.70;86.60;;;;;;5097328;28;20123;-77
2021/07/12 04:37:57;;;;;;;11.57;10.38;;;17.70;86.60;;;;;;5091248;28;20048;-77
2021/07/12 04:40:23;;;;;;;11.75;9.90;;;17.80;86.60;;;;;;5079313;28;20412;-77
2021/07/12 04:42:49;;;;;;;10.63;8.80;;;17.80;86.50;;;;;;5097380;28;20039;-77
2021/07/12 04:45:15;;;;;;;10.38;8.70;;;17.90;86.40;;;;;;5095053;28;20032;-76
2021/07/12 04:47:41;;;;;;;9.75;8.68;;;17.90;86.30;;;;;;5084382;28;20029;-76
2021/07/12 04:50:08;;;;;;;9.15;8.18;;;17.90;86.10;;;;;;5080382;28;20035;-76
2021/07/12 04:52:34;;;;;;;9.20;8.30;;;17.90;86.20;;;;;;5098146;28;20036;-77
2021/07/12 04:55:00;;;;;;;8.43;7.63;;;17.90;86.20;;;;;;5098698;28;20020;-77
2021/07/12 04:57:25;;;;;;;11.27;9.35;;;18.00;86.20;;;;;;5092619;28;20113;-77
2021/07/12 04:59:52;;;;;;;11.45;8.70;;;18.10;86.20;;;;;;5097050;28;20080;-77
2021/07/12 05:02:18;;;;;;;13.13;9.05;;;18.10;86.20;;;;;;5079275;28;20021;-77
2021/07/12 05:04:44;;;;;;;11.27;9.10;;;18.10;86.10;;;;;;5080608;28;20039;-76
2021/07/12 05:07:11;;;;;;;13.90;9.18;;;18.20;86.00;;;;;;5074719;28;20039;-77
2021/07/12 05:09:37;;;;;;;9.75;8.75;;;18.20;85.70;;;;;;5091358;28;20107;-77
2021/07/12 05:12:08;;;;;;;9.65;8.73;;;18.20;85.50;;;;;;5078756;28;20133;-77
2021/07/12 05:14:35;;;;;;;13.05;8.40;;;18.20;85.50;;;;;;5083068;28;20043;-77
2021/07/12 05:17:01;;;;;;;8.98;8.07;;;18.30;85.50;;;;;;5098914;28;20047;-77
2021/07/12 05:19:26;;;;;;;8.68;7.15;;;18.30;85.50;;;;;;5092902;28;20533;-77
2021/07/12 05:21:52;;;;;;;9.10;7.45;;;18.30;85.30;;;;;;5083279;28;20040;-77
2021/07/12 05:24:18;;;;;;;8.60;7.15;;;18.30;85.30;;;;;;5080085;28;20062;-77
2021/07/12 05:26:43;;;;;;;11.95;7.60;;;18.40;85.20;;;;;;5065788;28;20397;-77
2021/07/12 05:29:09;;;;;;;12.80;7.90;;;18.40;85.10;;;;;;5076702;28;20029;-76
2021/07/12 05:31:34;;;;;;;10.07;7.60;;;18.50;85.00;;;;;;5077820;28;20036;-77
2021/07/12 05:34:00;;;;;;;8.13;7.20;;;18.50;84.80;;;;;;5074583;28;20032;-76
2021/07/12 05:36:26;;;;;;;9.18;7.35;;;18.50;84.70;;;;;;5075593;28;20043;-77
2021/07/12 05:38:51;;;;;;;10.38;6.63;;;18.60;84.80;;;;;;5074282;28;20055;-76
2021/07/12 05:41:17;;;;;;;8.35;7.28;;;18.60;84.70;;;;;;5075571;28;20434;-77
2021/07/12 05:43:43;;;;;;;7.68;6.97;;;18.60;84.60;;;;;;5075287;28;20028;-77
2021/07/12 05:46:08;;;;;;;6.97;6.07;;;18.60;84.70;;;;;;5075553;28;20033;-77
2021/07/12 05:48:34;;;;;;;6.90;6.22;;;18.70;84.70;;;;;;5074160;28;20037;-77
2021/07/12 05:51:00;;;;;;;7.60;6.80;;;18.70;84.50;;;;;;5087531;28;20110;-77
2021/07/12 05:53:25;;;;;;;6.97;5.80;;;18.70;84.40;;;;;;5095571;28;20043;-77
2021/07/12 05:55:51;;;;;;;8.70;6.10;;;18.70;84.40;;;;;;5095558;28;20025;-77
2021/07/12 05:58:17;;;;;;;7.13;5.78;;;18.70;84.40;;;;;;5095500;28;20021;-76
2021/07/12 06:00:42;;;;;;;9.85;6.72;;;18.70;84.40;;;;;;5077428;28;20029;-77
2021/07/12 06:03:08;;;;;;;8.73;5.90;;;18.70;84.40;;;;;;5057220;28;20115;-76
2021/07/12 06:05:34;;;;;;;6.65;5.95;;;18.70;84.30;;;;;;5075200;28;20041;-77
2021/07/12 06:08:00;;;;;;;6.93;5.72;;;18.80;84.10;;;;;;5074978;28;20025;-76
2021/07/12 06:10:26;;;;;;;11.15;5.53;;;18.80;84.00;;;;;;5075111;28;20047;-77
2021/07/12 06:12:51;;;;;;;5.85;5.13;;;18.80;84.00;;;;;;5074793;28;20035;-77
2021/07/12 06:15:17;;;;;;;8.00;5.18;;;18.90;83.90;;;;;;5072381;28;20090;-76
2021/07/12 06:17:44;;;;;;;6.68;4.97;;;19.00;83.80;;;;;;5074897;28;20504;-77
2021/07/12 06:20:14;;;;;;;6.50;4.70;;;19.00;83.70;;;;;;5074623;28;20041;-77
2021/07/12 06:22:39;;;;;;;4.80;4.40;;;19.10;83.50;;;;;;5073556;28;20032;-77
2021/07/12 06:25:05;;;;;;;4.82;4.35;;;19.10;83.30;;;;;;5089713;28;20020;-77
2021/07/12 06:27:31;;;;;;;5.63;4.95;;;19.20;83.20;;;;;;5094826;28;20028;-76
2021/07/12 06:29:57;;;;;;;4.15;3.75;;;19.30;83.20;;;;;;5087234;28;20024;-76
2021/07/12 06:32:22;;;;;;;5.13;3.63;;;19.40;82.90;;;;;;5073258;28;20044;-77
2021/07/12 06:34:48;;;;;;;4.93;3.80;;;19.50;82.70;;;;;;5074564;28;20028;-76
2021/07/12 06:37:13;;;;;;;5.25;4.10;;;19.60;82.30;;;;;;5074265;28;20044;-77
2021/07/12 06:39:39;;;;;;;4.28;3.40;;;19.70;82.10;;;;;;5074471;28;20100;-77
2021/07/12 06:42:05;;;;;;;5.10;3.55;;;19.80;81.70;;;;;;5091702;28;20027;-77
2021/07/12 06:44:31;;;;;;;5.97;3.83;;;19.90;81.20;;;;;;5086544;28;20024;-77
2021/07/12 06:46:56;;;;;;;3.45;3.05;;;20.00;81.10;;;;;;5074163;28;20492;-77
2021/07/12 06:49:22;;;;;;;6.05;3.28;;;20.10;80.90;;;;;;5074168;28;20028;-76
2021/07/12 06:51:49;;;;;;;3.20;2.88;;;20.20;80.40;;;;;;5073952;28;20032;-77
2021/07/12 06:54:15;;;;;;;6.80;3.22;;;20.40;79.80;;;;;;5074114;28;20469;-77
2021/07/12 06:56:41;;;;;;;3.17;2.80;;;20.60;79.20;;;;;;5091136;28;20119;-76
2021/07/12 06:59:07;;;;;;;9.13;3.03;;;20.80;79.00;;;;;;5082607;28;20533;-77
2021/07/12 07:01:33;;;;;;;3.92;2.72;;;20.90;78.40;;;;;;5073953;28;20025;-77
2021/07/12 07:03:58;;;;;;;3.22;2.70;;;21.00;77.90;;;;;;5073967;28;20035;-77
2021/07/12 07:06:24;;;;;;;7.47;2.75;;;21.20;77.40;;;;;;5073995;28;20032;-77
2021/07/12 07:08:50;;;;;;;4.65;2.40;;;21.30;76.90;;;;;;5073939;28;20040;-77
2021/07/12 07:11:15;;;;;;;5.03;2.80;;;21.40;76.40;;;;;;5072559;28;20131;-77
2021/07/12 07:13:41;;;;;;;4.20;2.55;;;21.60;76.10;;;;;;5055750;28;20032;-77
2021/07/12 07:16:07;;;;;;;5.35;2.55;;;21.60;75.80;;;;;;5074416;28;20123;-77
2021/07/12 07:18:32;;;;;;;6.30;3.10;;;21.70;75.50;;;;;;5072507;28;20032;-77
2021/07/12 07:20:58;;;;;;;5.95;3.00;;;21.90;74.80;;;;;;5071852;28;20537;-77
2021/07/12 07:23:24;;;;;;;4.28;2.92;;;22.00;75.40;;;;;;5073059;28;20024;-77
2021/07/12 07:25:50;;;;;;;4.15;2.50;;;22.10;74.30;;;;;;5073416;28;20032;-77
2021/07/12 07:28:17;;;;;;;5.88;3.50;;;22.20;74.10;;;;;;5073331;28;20037;-77
2021/07/12 07:30:43;;;;;;;7.13;3.67;;;22.30;73.90;;;;;;5073157;28;20035;-77
2021/07/12 07:33:09;;;;;;;5.05;2.97;;;22.40;73.60;;;;;;5073438;28;20024;-77
2021/07/12 07:35:35;;;;;;;4.03;2.83;;;22.50;73.50;;;;;;5072282;28;20036;-77
2021/07/12 07:38:00;;;;;;;3.78;2.75;;;22.50;72.60;;;;;;5073442;28;20440;-77
2021/07/12 07:40:26;;;;;;;9.30;3.40;;;22.60;72.40;;;;;;5073394;28;20447;-77
2021/07/12 07:42:52;;;;;;;4.07;3.35;;;22.70;71.90;;;;;;5073462;28;20067;-77
2021/07/12 07:45:17;;;;;;;4.55;3.10;;;22.80;71.40;;;;;;5072629;28;20029;-77
2021/07/12 07:47:45;;;;;;;3.92;2.92;;;23.00;71.10;;;;;;5073050;28;20032;-77
2021/07/12 07:50:12;;;;;;;3.08;2.78;;;23.10;70.60;;;;;;5083399;28;20357;-77
2021/07/12 07:52:38;;;;;;;3.25;2.78;;;23.20;70.20;;;;;;5073253;28;20017;-77
2021/07/12 07:55:08;;;;;;;9.98;3.08;;;23.30;69.40;;;;;;5072888;28;20035;-77
2021/07/12 07:57:40;;;;;;;3.92;2.92;;;23.40;69.30;;;;;;5073084;28;20035;-77
2021/07/12 08:00:10;;;;;;;6.43;3.20;;;23.50;69.00;;;;;;5051776;28;20366;-77
2021/07/12 08:02:35;;;;;;;3.50;3.20;;;23.50;68.50;;;;;;5060600;28;20036;-77
2021/07/12 08:05:01;;;;;;;3.35;2.88;;;23.60;68.20;;;;;;5081465;28;20024;-77
2021/07/12 08:07:26;;;;;;;4.05;2.75;;;23.80;69.30;;;;;;5073539;28;20424;-77
2021/07/12 08:09:52;;;;;;;3.78;3.10;;;23.90;68.00;;;;;;5091166;28;20073;-77
2021/07/12 08:12:18;;;;;;;7.15;3.53;;;24.00;67.70;;;;;;5075109;28;20064;-77
2021/07/12 08:14:44;;;;;;;4.00;2.80;;;24.10;67.50;;;;;;5072965;28;20033;-75
2021/07/12 08:17:09;;;;;;;3.28;2.50;;;24.20;66.60;;;;;;5071534;28;20016;-76
2021/07/12 08:19:35;;;;;;;2.65;2.30;;;24.30;66.70;;;;;;5081242;28;20032;-76
2021/07/12 08:22:01;;;;;;;3.35;2.53;;;24.40;65.40;;;;;;5084918;28;20040;-75
2021/07/12 08:24:26;;;;;;;5.00;2.35;;;24.60;65.30;;;;;;5080067;28;20572;-76
2021/07/12 08:26:52;;;;;;;5.57;2.75;;;24.60;64.70;;;;;;5092968;28;20090;-76
2021/07/12 08:29:18;;;;;;;2.95;2.20;;;24.70;64.60;;;;;;5091224;28;20032;-75
2021/07/12 08:31:46;;;;;;;8.48;2.40;;;24.80;64.50;;;;;;5079335;28;20481;-75
2021/07/12 08:34:12;;;;;;;6.72;2.20;;;24.80;63.80;;;;;;5075230;28;20025;-76
2021/07/12 08:36:38;;;;;;;2.28;2.08;;;24.90;62.90;;;;;;5080366;28;21035;-76
2021/07/12 08:39:05;;;;;;;3.88;1.90;;;24.90;62.70;;;;;;5074535;28;20047;-76
2021/07/12 08:41:32;;;;;;;2.67;1.70;;;25.00;62.30;;;;;;5071927;28;20035;-77
2021/07/12 08:43:58;;;;;;;3.13;2.50;;;25.10;62.40;;;;;;5073998;28;20025;-76
2021/07/12 08:46:23;;;;;;;2.72;2.08;;;25.20;61.70;;;;;;5072570;28;20044;-76
2021/07/12 08:48:49;;;;;;;4.15;2.20;;;25.40;61.90;;;;;;5071321;28;20034;-76
2021/07/12 08:51:15;;;;;;;4.00;2.08;;;25.50;62.40;;;;;;5071280;28;20098;-76
2021/07/12 08:53:41;;;;;;;3.45;2.20;;;25.60;61.60;;;;;;5072501;28;20036;-77
2021/07/12 08:56:06;;;;;;;2.85;2.28;;;25.80;60.90;;;;;;5070888;28;20043;-76
2021/07/12 08:58:34;;;;;;;3.30;2.50;;;25.80;60.70;;;;;;5072754;28;20029;-76
2021/07/12 09:01:06;;;;;;;3.85;2.10;;;25.90;60.10;;;;;;5072541;28;20025;-77
2021/07/12 09:03:36;;;;;;;3.38;2.30;;;25.80;59.40;;;;;;5072462;28;20021;-76
2021/07/12 09:06:16;;;;;;;3.60;2.40;;;25.90;59.90;;;;;;5074809;28;20081;-76
2021/07/12 09:08:53;;;;;;;4.50;2.15;;;25.90;59.30;;;;;;5076099;28;20029;-77
2021/07/12 09:11:31;;;;;;;5.20;2.00;;;25.90;59.00;;;;;;5074617;28;20047;-77
2021/07/12 09:14:07;;;;;;;2.03;1.90;;;25.90;59.10;;;;;;5076061;28;20032;-77
2021/07/12 09:16:37;;;;;;;3.60;2.00;;;26.00;58.40;;;;;;5075949;28;20020;-76
2021/07/12 09:19:13;;;;;;;4.93;2.03;;;26.10;58.90;;;;;;5075881;28;20488;-76
2021/07/12 09:21:57;;;;;;;2.40;1.95;;;26.10;57.70;;;;;;5075443;28;20080;-77
2021/07/12 09:24:36;;;;;;;2.55;1.80;;;26.20;57.50;;;;;;5075006;28;20024;-77
2021/07/12 09:27:06;;;;;;;2.53;1.83;;;26.20;57.40;;;;;;5076108;28;20543;-77
2021/07/12 09:29:43;;;;;;;4.25;1.95;;;26.20;57.30;;;;;;5075490;28;20168;-77
2021/07/12 09:32:11;;;;;;;3.00;1.70;;;26.30;56.90;;;;;;5075562;28;20486;-77
2021/07/12 09:34:37;;;;;;;3.25;1.90;;;26.30;57.20;;;;;;5075554;28;20055;-77
2021/07/12 09:37:04;;;;;;;2.00;1.63;;;26.30;57.10;;;;;;5075532;28;20028;-77
2021/07/12 09:39:37;;;;;;;2.10;1.50;;;26.30;57.30;;;;;;5088379;28;20028;-77
2021/07/12 09:42:11;;;;;;;4.57;1.60;;;26.30;55.30;;;;;;5075115;28;20021;-77
2021/07/12 09:44:40;;;;;;;2.17;1.50;;;26.30;55.60;;;;;;5077677;28;20103;-77
2021/07/12 09:47:10;;;;;;;;;;;26.40;56.10;;;;;;5081373;28;20032;-77
2021/07/12 09:49:37;;;;;;;2.83;1.40;;;26.40;54.40;;;;;;5089003;28;20360;-77
2021/07/12 09:52:06;;;;;;;3.25;1.60;;;26.40;55.20;;;;;;5090935;28;20040;-77
2021/07/12 09:54:35;;;;;;;6.70;1.77;;;26.50;55.70;;;;;;5075759;28;20063;-77
2021/07/12 09:57:03;;;;;;;1.73;1.58;;;26.70;55.60;;;;;;5075557;28;20779;-77
2021/07/12 09:59:28;;;;;;;2.00;1.40;;;26.70;56.10;;;;;;5076419;28;20036;-77
2021/07/12 10:01:55;;;;;;;1.80;0.95;;;26.90;54.60;;;;;;5075095;28;20028;-77
2021/07/12 10:04:23;;;;;;;1.60;1.50;;;26.90;53.30;;;;;;5073982;28;20052;-76
2021/07/12 10:06:50;;;;;;;1.55;1.30;;;27.00;53.60;;;;;;5078423;28;20032;-77
2021/07/12 10:09:27;;;;;;;1.43;1.30;;;27.00;53.60;;;;;;5081868;28;20085;-77
2021/07/12 10:11:54;;;;;;;1.90;1.30;;;27.00;53.50;;;;;;5074993;28;20040;-77
2021/07/12 10:14:24;;;;;;;1.83;1.60;;;27.00;53.40;;;;;;5073972;28;20028;-77
2021/07/12 10:16:51;;;;;;;3.42;1.50;;;27.00;53.50;;;;;;5077894;28;20037;-77
2021/07/12 10:19:18;;;;;;;3.80;1.48;;;27.00;53.20;;;;;;5076191;28;20027;-77
2021/07/12 10:21:52;;;;;;;3.28;1.60;;;27.00;53.00;;;;;;5085663;28;20084;-77
2021/07/12 10:24:26;;;;;;;2.47;1.70;;;26.90;53.10;;;;;;5073409;28;20473;-77
2021/07/12 10:26:58;;;;;;;4.75;1.42;;;26.90;52.20;;;;;;5074815;28;20031;-77
2021/07/12 10:29:27;;;;;;;2.13;1.70;;;26.90;53.20;;;;;;5085519;28;20032;-77
2021/07/12 10:32:14;;;;;;;2.42;2.20;;;26.90;53.00;;;;;;5074701;28;20036;-77
2021/07/12 10:34:41;;;;;;;4.03;2.03;;;27.00;53.50;;;;;;5079573;28;20036;-77
2021/07/12 10:37:19;;;;;;;2.10;1.90;;;27.00;53.40;;;;;;5086166;28;20028;-77
2021/07/12 10:40:08;;;;;;;3.92;2.00;;;26.90;54.20;;;;;;5088429;28;20108;-77
2021/07/12 10:42:45;;;;;;;1.70;1.60;;;27.10;53.70;;;;;;5085064;28;20107;-78
2021/07/12 10:45:14;;;;;;;4.30;1.70;;;27.20;54.10;;;;;;5074040;28;20419;-78
2021/07/12 10:47:59;;;;;;;5.15;1.65;;;27.30;52.80;;;;;;5087907;28;20027;-78
2021/07/12 10:50:45;;;;;;;4.57;1.80;;;27.50;52.20;;;;;;5074482;28;20048;-78
2021/07/12 10:53:14;;;;;;;3.00;1.95;;;27.60;52.80;;;;;;5081475;28;20020;-77
2021/07/12 10:55:40;;;;;;;;;;;27.60;52.00;;;;;;5074627;28;20028;-77
2021/07/12 10:58:18;;;;;;;2.47;1.98;;;27.40;51.80;;;;;;5073901;28;20365;-77
2021/07/12 11:00:45;;;;;;;3.58;1.77;;;27.30;53.10;;;;;;5074015;28;20029;-77
2021/07/12 11:03:40;;;;;;;2.00;1.83;;;27.20;52.90;;;;;;5074023;28;20481;-77
2021/07/12 11:06:11;;;;;;;3.17;1.77;;;27.20;53.00;;;;;;5073832;28;20033;-77
2021/07/12 11:08:46;;;;;;;3.80;1.75;;;27.20;52.80;;;;;;5074001;28;20115;-77
2021/07/12 11:11:19;;;;;;;4.05;1.90;;;27.10;51.70;;;;;;5073633;28;20064;-78
2021/07/12 11:14:01;;;;;;;2.78;1.80;;;27.20;53.00;;;;;;5074920;28;20559;-77
2021/07/12 11:16:34;;;;;;;4.25;2.00;;;27.20;52.90;;;;;;5073799;28;20036;-77
2021/07/12 11:19:24;;;;;;;2.90;1.80;;;27.20;52.60;;;;;;5073770;28;20028;-77
2021/07/12 11:21:50;;;;;;;2.05;1.70;;;27.20;52.20;;;;;;5073372;28;20505;-77
2021/07/12 11:24:22;;;;;;;1.65;1.42;;;27.20;52.10;;;;;;5073769;28;20024;-77
2021/07/12 11:27:06;;;;;;;1.90;1.70;;;27.10;53.20;;;;;;5073353;28;20039;-77
2021/07/12 11:29:35;;;;;;;4.55;1.48;;;27.10;53.90;;;;;;5085607;28;20676;-78
2021/07/12 11:32:06;;;;;;;1.85;1.75;;;27.10;53.90;;;;;;5093824;28;20027;-77
2021/07/12 11:34:39;;;;;;;2.70;1.80;;;27.00;53.20;;;;;;5093712;28;20031;-77
2021/07/12 11:37:07;;;;;;;3.00;1.80;;;27.00;53.40;;;;;;5081769;28;20489;-77
2021/07/12 11:39:35;;;;;;;3.60;1.88;;;27.00;53.70;;;;;;5073336;28;20024;-77
2021/07/12 11:42:20;;;;;;;;;;;27.00;53.90;;;;;;5073696;28;20082;-78
2021/07/12 11:45:02;;;;;;;3.92;1.70;;;27.00;54.10;;;;;;5073274;28;19904;-77
2021/07/12 11:47:52;;;;;;;2.08;1.80;;;27.10;54.30;;;;;;5073334;28;20074;-77
2021/07/12 11:50:22;;;;;;;1.65;1.50;;;27.20;53.70;;;;;;5073141;28;20029;-77
2021/07/12 11:52:59;;;;;;;3.63;1.80;;;27.20;52.70;;;;;;5085069;28;20036;-77
2021/07/12 11:55:31;;;;;;;2.33;1.73;;;27.20;52.30;;;;;;5073066;28;20035;-77
2021/07/12 11:58:02;;;;;;;2.20;1.58;;;27.30;52.00;;;;;;5072219;28;20070;-78
2021/07/12 12:00:36;;;;;;;2.15;1.95;;;27.30;52.00;;;;;;5072828;28;20090;-77
2021/07/12 12:03:03;;;;;;;3.72;1.67;;;27.30;51.90;;;;;;5072874;28;20426;-77
2021/07/12 12:05:31;;;;;;;3.85;1.90;;;27.40;51.20;;;;;;5073157;28;20054;-77
2021/07/12 12:07:58;;;;;;;3.40;2.10;;;27.40;51.90;;;;;;5073149;28;20085;-77
2021/07/12 12:10:28;;;;;;;5.82;2.28;;;27.50;52.50;;;;;;5073971;28;20044;-77
2021/07/12 12:12:55;;;;;;;2.28;2.00;;;27.70;52.00;;;;;;5072866;28;20093;-77
2021/07/12 12:15:29;;;;;;;4.00;2.05;;;27.80;52.60;;;;;;5072556;28;20025;-77
2021/07/12 12:17:58;;;;;;;2.50;1.95;;;27.90;51.50;;;;;;5072836;28;20096;-77
2021/07/12 12:20:31;;;;;;;3.35;1.90;;;28.00;51.60;;;;;;5072527;28;20056;-78
2021/07/12 12:23:08;;;;;;;3.40;2.10;;;28.20;51.80;;;;;;5072648;28;20551;-77
2021/07/12 12:25:46;;;;;;;2.75;2.10;;;28.20;51.90;;;;;;5072700;28;20492;-78
2021/07/12 12:28:27;;;;;;;43.35;5.00;;;28.20;51.40;;;;;;5072682;28;20023;-78
2021/07/12 12:30:54;;;;;;;5.75;2.03;;;28.20;50.20;;;;;;5072826;28;20052;-77
2021/07/12 12:33:35;;;;;;;2.53;1.60;;;28.00;51.20;;;;;;5071660;28;20025;-77
2021/07/12 12:36:07;;;;;;;2.60;2.28;;;27.80;51.20;;;;;;5072563;28;20025;-78
2021/07/12 12:38:34;;;;;;;2.55;1.85;;;27.70;52.30;;;;;;5073414;28;20028;-78
2021/07/12 12:41:04;;;;;;;2.40;1.70;;;27.60;51.40;;;;;;5056770;28;20500;-77
2021/07/12 12:43:30;;;;;;;2.00;1.85;;;27.60;50.50;;;;;;5079078;28;20461;-77
2021/07/12 12:46:00;;;;;;;4.22;1.70;;;27.60;51.20;;;;;;5096838;28;20073;-77
2021/07/12 12:48:32;;;;;;;3.15;1.95;;;27.50;51.40;;;;;;5096849;28;20017;-77
2021/07/12 12:50:59;;;;;;;3.67;1.92;;;27.50;51.80;;;;;;5085998;28;20028;-78
2021/07/12 12:53:31;;;;;;;2.58;1.80;;;27.40;51.40;;;;;;5076715;28;20033;-78
2021/07/12 12:55:57;;;;;;;3.50;1.67;;;27.40;52.20;;;;;;5075027;28;20047;-77
2021/07/12 12:58:26;;;;;;;4.13;1.77;;;27.30;51.90;;;;;;5077456;28;20415;-78